createdAt,value
2022-12-25T00:00:53.378Z,510.00
2022-12-25T00:01:53.271Z,509.00
2022-12-25T00:02:53.317Z,508.00
2022-12-25T00:03:53.511Z,505.00
2022-12-25T00:04:53.234Z,507.00
2022-12-25T00:05:53.223Z,505.00
2022-12-25T00:06:53.218Z,505.00
2022-12-25T00:07:53.200Z,500.00
2022-12-25T00:08:53.179Z,506.00
2022-12-25T00:09:53.177Z,506.00
2022-12-25T00:10:53.166Z,509.00
2022-12-25T00:11:53.153Z,505.00
2022-12-25T00:12:53.147Z,507.00
2022-12-25T00:13:53.131Z,507.00
2022-12-25T00:14:53.145Z,503.00
2022-12-25T00:15:53.130Z,505.00
2022-12-25T00:16:53.082Z,504.00
2022-12-25T00:17:53.086Z,504.00
2022-12-25T00:18:53.084Z,507.00
2022-12-25T00:19:53.054Z,504.00
2022-12-25T00:20:53.050Z,504.00
2022-12-25T00:21:53.012Z,499.00
2022-12-25T00:22:53.565Z,506.00
2022-12-25T00:23:53.028Z,507.00
2022-12-25T00:24:52.994Z,507.00
2022-12-25T00:25:52.984Z,507.00
2022-12-25T00:26:52.975Z,508.00
2022-12-25T00:27:52.963Z,505.00
2022-12-25T00:28:52.953Z,505.00
2022-12-25T00:29:52.958Z,502.00
2022-12-25T00:30:52.937Z,503.00
2022-12-25T00:31:52.989Z,502.00
2022-12-25T00:32:52.917Z,502.00
2022-12-25T00:33:52.901Z,504.00
2022-12-25T00:34:52.893Z,503.00
2022-12-25T00:35:52.863Z,507.00
2022-12-25T00:36:52.846Z,506.00
2022-12-25T00:37:52.829Z,504.00
2022-12-25T00:38:52.864Z,508.00
2022-12-25T00:39:52.813Z,505.00
2022-12-25T00:40:52.800Z,506.00
2022-12-25T00:41:52.776Z,510.00
2022-12-25T00:42:52.771Z,509.00
2022-12-25T00:43:52.750Z,509.00
2022-12-25T00:44:52.741Z,507.00
2022-12-25T00:45:52.802Z,507.00
2022-12-25T00:46:52.792Z,507.00
2022-12-25T00:47:52.708Z,507.00
2022-12-25T00:48:52.756Z,507.00
2022-12-25T00:49:52.717Z,506.00
2022-12-25T00:50:52.678Z,504.00
2022-12-25T00:51:52.678Z,504.00
2022-12-25T00:52:52.680Z,506.00
2022-12-25T00:53:52.662Z,507.00
2022-12-25T00:54:52.678Z,505.00
2022-12-25T01:35:52.442Z,504.00
2022-12-25T02:28:52.141Z,509.00
2022-12-25T02:29:52.137Z,506.00
2022-12-25T02:30:52.136Z,504.00
2022-12-25T02:31:52.177Z,504.00
2022-12-25T02:32:52.133Z,505.00
2022-12-25T02:33:52.118Z,504.00
2022-12-25T02:34:52.122Z,505.00
2022-12-25T02:35:52.114Z,504.00
2022-12-25T02:36:52.108Z,500.00
2022-12-25T02:37:52.111Z,503.00
2022-12-25T02:38:52.085Z,507.00
2022-12-25T02:39:52.078Z,501.00
2022-12-25T02:40:52.071Z,502.00
2022-12-25T02:41:52.073Z,500.00
2022-12-25T02:42:52.051Z,501.00
2022-12-25T02:43:52.047Z,505.00
2022-12-25T02:44:52.043Z,502.00
2022-12-25T02:45:52.111Z,505.00
2022-12-25T02:46:52.056Z,503.00
2022-12-25T02:47:52.075Z,501.00
2022-12-25T02:48:52.036Z,504.00
2022-12-25T02:49:52.046Z,505.00
2022-12-25T02:50:52.037Z,502.00
2022-12-25T02:51:52.036Z,505.00
2022-12-25T02:52:52.030Z,502.00
2022-12-25T02:53:52.038Z,503.00
2022-12-25T02:54:52.040Z,503.00
2022-12-25T02:55:52.035Z,506.00
2022-12-25T02:56:52.034Z,509.00
2022-12-25T02:57:52.017Z,513.00
2022-12-25T02:58:52.016Z,503.00
2022-12-25T02:59:52.026Z,506.00
2022-12-25T03:00:52.029Z,501.00
2022-12-25T03:01:52.131Z,507.00
2022-12-25T03:02:52.053Z,509.00
2022-12-25T03:03:52.004Z,503.00
2022-12-25T03:04:51.991Z,506.00
2022-12-25T03:05:51.976Z,505.00
2022-12-25T03:06:51.962Z,505.00
2022-12-25T03:07:51.968Z,504.00
2022-12-25T03:08:51.961Z,501.00
2022-12-25T03:09:51.952Z,507.00
2022-12-25T03:10:51.939Z,502.00
2022-12-25T03:11:51.935Z,504.00
2022-12-25T03:12:51.933Z,504.00
2022-12-25T03:13:51.924Z,511.00
2022-12-25T03:14:51.945Z,506.00
2022-12-25T03:15:51.934Z,506.00
2022-12-25T03:16:52.018Z,505.00
2022-12-25T03:17:51.938Z,511.00
2022-12-25T03:18:51.939Z,509.00
2022-12-25T03:19:51.918Z,508.00
2022-12-25T03:20:51.918Z,504.00
2022-12-25T03:21:51.916Z,505.00
2022-12-25T03:22:51.936Z,506.00
2022-12-25T03:23:51.908Z,505.00
2022-12-25T03:24:51.911Z,502.00
2022-12-25T03:25:51.904Z,503.00
2022-12-25T03:26:51.890Z,508.00
2022-12-25T03:27:51.885Z,508.00
2022-12-25T03:28:51.877Z,507.00
2022-12-25T03:29:51.877Z,507.00
2022-12-25T03:30:51.903Z,508.00
2022-12-25T03:31:51.886Z,508.00
2022-12-25T03:32:51.858Z,506.00
2022-12-25T03:33:51.852Z,508.00
2022-12-25T03:34:51.838Z,511.00
2022-12-25T03:35:51.867Z,511.00
2022-12-25T03:36:51.845Z,512.00
2022-12-25T03:37:51.865Z,512.00
2022-12-25T04:51:51.239Z,508.00
2022-12-25T04:52:51.231Z,505.00
2022-12-25T04:53:51.250Z,510.00
2022-12-25T04:54:51.227Z,510.00
2022-12-25T04:55:51.256Z,505.00
2022-12-25T04:56:51.238Z,508.00
2022-12-25T04:57:51.222Z,505.00
2022-12-25T04:58:51.204Z,507.00
2022-12-25T04:59:51.213Z,507.00
2022-12-25T05:00:51.260Z,502.00
2022-12-25T05:01:51.292Z,506.00
2022-12-25T05:02:51.456Z,508.00
2022-12-25T05:03:51.293Z,506.00
2022-12-25T05:04:51.187Z,505.00
2022-12-25T05:05:51.164Z,505.00
2022-12-25T05:06:51.133Z,506.00
2022-12-25T05:07:51.117Z,504.00
2022-12-25T05:08:51.107Z,509.00
2022-12-25T05:09:51.097Z,505.00
2022-12-25T05:10:51.075Z,505.00
2022-12-25T05:11:51.074Z,507.00
2022-12-25T05:12:51.085Z,503.00
2022-12-25T05:13:51.051Z,507.00
2022-12-25T05:14:51.050Z,510.00
2022-12-25T05:15:51.070Z,506.00
2022-12-25T05:16:51.019Z,504.00
2022-12-25T05:17:51.033Z,505.00
2022-12-25T05:18:51.103Z,505.00
2022-12-25T05:19:50.998Z,504.00
2022-12-25T05:20:50.998Z,505.00
2022-12-25T05:21:51.069Z,505.00
2022-12-25T05:22:50.982Z,509.00
2022-12-25T05:23:50.978Z,509.00
2022-12-25T05:24:50.979Z,506.00
2022-12-25T05:25:50.976Z,507.00
2022-12-25T05:26:50.975Z,506.00
2022-12-25T05:27:53.995Z,504.00
2022-12-25T05:28:50.965Z,511.00
2022-12-25T05:29:50.955Z,501.00
2022-12-25T05:30:50.942Z,506.00
2022-12-25T05:31:51.006Z,508.00
2022-12-25T05:32:50.922Z,506.00
2022-12-25T05:33:50.911Z,507.00
2022-12-25T05:34:50.889Z,506.00
2022-12-25T05:35:50.896Z,506.00
2022-12-25T05:36:50.889Z,507.00
2022-12-25T05:37:50.871Z,507.00
2022-12-25T05:38:50.874Z,506.00
2022-12-25T05:39:50.873Z,506.00
2022-12-25T05:40:50.845Z,505.00
2022-12-25T05:41:50.840Z,508.00
2022-12-25T05:42:50.844Z,505.00
2022-12-25T05:43:50.827Z,506.00
2022-12-25T05:44:50.827Z,509.00
2022-12-25T05:45:50.809Z,509.00
2022-12-25T05:46:50.934Z,506.00
2022-12-25T05:47:50.801Z,509.00
2022-12-25T05:48:50.779Z,510.00
2022-12-25T05:49:50.784Z,509.00
2022-12-25T05:50:50.752Z,510.00
2022-12-25T05:51:50.749Z,510.00
2022-12-25T05:52:50.743Z,511.00
2022-12-25T05:53:50.733Z,510.00
2022-12-25T05:54:50.730Z,511.00
2022-12-25T05:55:50.761Z,508.00
2022-12-25T05:56:50.700Z,512.00
2022-12-25T05:57:50.689Z,507.00
2022-12-25T05:58:50.679Z,505.00
2022-12-25T05:59:50.667Z,508.00
2022-12-25T06:00:50.654Z,511.00
2022-12-25T06:01:50.727Z,509.00
2022-12-25T06:02:50.766Z,508.00
2022-12-25T06:03:50.709Z,512.00
2022-12-25T06:04:50.625Z,511.00
2022-12-25T06:05:50.615Z,511.00
2022-12-25T06:06:50.603Z,509.00
2022-12-25T06:07:50.607Z,511.00
2022-12-25T06:08:50.586Z,512.00
2022-12-25T06:09:50.570Z,510.00
2022-12-25T06:10:50.581Z,511.00
2022-12-25T06:11:50.560Z,511.00
2022-12-25T06:12:50.580Z,509.00
2022-12-25T06:13:50.525Z,509.00
2022-12-25T06:14:50.524Z,510.00
2022-12-25T06:15:50.559Z,510.00
2022-12-25T06:16:50.560Z,512.00
2022-12-25T06:17:50.507Z,509.00
2022-12-25T06:18:50.476Z,507.00
2022-12-25T06:19:50.461Z,511.00
2022-12-25T06:20:50.452Z,511.00
2022-12-25T06:21:50.449Z,511.00
2022-12-25T06:22:50.456Z,512.00
2022-12-25T06:23:50.663Z,509.00
2022-12-25T06:24:50.452Z,509.00
2022-12-25T06:25:50.425Z,510.00
2022-12-25T06:26:50.420Z,506.00
2022-12-25T06:38:50.393Z,505.00
2022-12-25T06:39:50.384Z,506.00
2022-12-25T06:40:50.386Z,505.00
2022-12-25T06:41:50.369Z,506.00
2022-12-25T06:42:50.365Z,507.00
2022-12-25T06:43:50.368Z,508.00
2022-12-25T06:44:50.354Z,506.00
2022-12-25T06:45:50.403Z,507.00
2022-12-25T06:46:50.352Z,507.00
2022-12-25T06:47:50.343Z,506.00
2022-12-25T06:48:50.363Z,510.00
2022-12-25T06:49:50.326Z,508.00
2022-12-25T06:50:50.332Z,506.00
2022-12-25T06:51:50.306Z,511.00
2022-12-25T06:52:50.307Z,508.00
2022-12-25T06:53:50.314Z,509.00
2022-12-25T06:54:50.283Z,507.00
2022-12-25T06:55:50.271Z,506.00
2022-12-25T06:56:50.273Z,506.00
2022-12-25T06:57:50.271Z,503.00
2022-12-25T06:58:50.270Z,506.00
2022-12-25T06:59:55.084Z,503.00
2022-12-25T07:00:51.313Z,504.00
2022-12-25T07:01:50.453Z,504.00
2022-12-25T07:02:50.435Z,504.00
2022-12-25T07:03:50.245Z,505.00
2022-12-25T07:04:50.229Z,509.00
2022-12-25T07:05:50.219Z,505.00
2022-12-25T07:06:50.213Z,508.00
2022-12-25T07:07:50.192Z,502.00
2022-12-25T07:08:50.214Z,505.00
2022-12-25T07:09:50.186Z,508.00
2022-12-25T07:10:50.189Z,511.00
2022-12-25T07:11:50.187Z,507.00
2022-12-25T07:12:50.166Z,506.00
2022-12-25T07:13:50.157Z,507.00
2022-12-25T07:14:50.364Z,507.00
2022-12-25T07:15:50.162Z,506.00
2022-12-25T07:16:50.201Z,506.00
2022-12-25T07:17:50.175Z,506.00
2022-12-25T07:18:50.163Z,505.00
2022-12-25T07:19:50.148Z,507.00
2022-12-25T07:20:50.153Z,505.00
2022-12-25T07:21:50.171Z,509.00
2022-12-25T07:22:50.729Z,508.00
2022-12-25T07:23:50.148Z,510.00
2022-12-25T07:24:50.147Z,510.00
2022-12-25T07:25:50.141Z,506.00
2022-12-25T07:26:50.147Z,504.00
2022-12-25T07:27:50.147Z,506.00
2022-12-25T07:28:50.140Z,504.00
2022-12-25T07:29:50.134Z,504.00
2022-12-25T07:30:50.137Z,509.00
2022-12-25T07:31:50.177Z,508.00
2022-12-25T07:32:50.460Z,506.00
2022-12-25T07:33:50.119Z,512.00
2022-12-25T07:34:50.107Z,509.00
2022-12-25T07:35:50.106Z,507.00
2022-12-25T07:36:50.136Z,511.00
2022-12-25T07:37:50.108Z,505.00
2022-12-25T07:38:50.121Z,508.00
2022-12-25T07:39:50.100Z,512.00
2022-12-25T07:40:50.099Z,507.00
2022-12-25T07:41:50.100Z,505.00
2022-12-25T07:45:50.099Z,511.00
2022-12-25T11:02:47.185Z,556.00
2022-12-25T11:03:46.997Z,557.00
2022-12-25T11:04:46.927Z,556.00
2022-12-25T11:05:46.884Z,556.00
2022-12-25T11:06:46.847Z,555.00
2022-12-25T11:07:46.916Z,558.00
2022-12-25T11:08:46.793Z,561.00
2022-12-25T11:09:46.766Z,561.00
2022-12-25T11:10:46.739Z,557.00
2022-12-25T11:11:46.706Z,558.00
2022-12-25T11:12:46.678Z,558.00
2022-12-25T11:13:46.655Z,557.00
2022-12-25T11:14:46.612Z,555.00
2022-12-25T11:15:46.610Z,558.00
2022-12-25T11:16:46.577Z,556.00
2022-12-25T11:17:46.527Z,556.00
2022-12-25T11:18:46.495Z,558.00
2022-12-25T11:19:46.473Z,555.00
2022-12-25T11:20:47.263Z,557.00
2022-12-25T11:21:46.418Z,549.00
2022-12-25T11:22:46.370Z,553.00
2022-12-25T11:23:46.344Z,556.00
2022-12-25T11:24:46.321Z,552.00
2022-12-25T11:25:46.275Z,556.00
2022-12-25T11:26:46.245Z,557.00
2022-12-25T11:27:50.331Z,556.00
2022-12-25T11:28:47.178Z,556.00
2022-12-25T11:29:46.156Z,556.00
2022-12-25T11:30:46.146Z,556.00
2022-12-25T11:31:46.120Z,550.00
2022-12-25T11:32:46.048Z,552.00
2022-12-25T11:33:46.014Z,553.00
2022-12-25T11:34:45.987Z,552.00
2022-12-25T11:35:46.051Z,550.00
2022-12-25T11:36:45.918Z,551.00
2022-12-25T11:37:45.883Z,550.00
2022-12-25T11:38:45.857Z,549.00
2022-12-25T11:39:45.818Z,545.00
2022-12-25T11:40:45.787Z,549.00
2022-12-25T11:41:45.749Z,549.00
2022-12-25T11:42:45.717Z,547.00
2022-12-25T11:43:45.683Z,546.00
2022-12-25T11:44:45.636Z,548.00
2022-12-25T11:45:45.604Z,551.00
2022-12-25T11:46:45.644Z,548.00
2022-12-25T11:47:45.537Z,547.00
2022-12-25T11:48:45.504Z,549.00
2022-12-25T11:49:49.736Z,549.00
2022-12-25T11:50:45.442Z,549.00
2022-12-25T11:51:45.409Z,549.00
2022-12-25T11:52:45.371Z,550.00
2022-12-25T11:53:45.343Z,549.00
2022-12-25T11:54:45.307Z,545.00
2022-12-25T11:55:45.307Z,545.00
2022-12-25T11:56:45.235Z,545.00
2022-12-25T11:57:45.203Z,539.00
2022-12-25T11:58:45.167Z,544.00
2022-12-25T11:59:45.150Z,537.00
2022-12-25T12:00:45.098Z,539.00
2022-12-25T12:01:45.213Z,542.00
2022-12-25T12:02:45.320Z,541.00
2022-12-25T12:03:45.034Z,539.00
2022-12-25T12:04:44.974Z,539.00
2022-12-25T12:05:44.940Z,539.00
2022-12-25T12:06:44.909Z,539.00
2022-12-25T12:07:44.871Z,540.00
2022-12-25T12:08:44.828Z,535.00
2022-12-25T12:09:44.804Z,532.00
2022-12-25T12:10:44.774Z,532.00
2022-12-25T12:11:44.733Z,537.00
2022-12-25T12:12:48.917Z,537.00
2022-12-25T12:13:44.683Z,538.00
2022-12-25T12:14:44.631Z,531.00
2022-12-25T12:15:44.630Z,537.00
2022-12-25T12:16:44.643Z,534.00
2022-12-25T12:17:44.543Z,533.00
2022-12-25T12:18:50.029Z,536.00
2022-12-25T12:19:45.484Z,537.00
2022-12-25T12:20:44.450Z,537.00
2022-12-25T12:21:44.404Z,538.00
2022-12-25T12:22:44.358Z,539.00
2022-12-25T12:23:44.332Z,537.00
2022-12-25T12:24:44.312Z,541.00
2022-12-25T12:25:44.302Z,542.00
2022-12-25T12:26:44.228Z,542.00
2022-12-25T12:27:44.207Z,540.00
2022-12-25T12:28:44.169Z,545.00
2022-12-25T12:29:44.150Z,541.00
2022-12-25T12:30:44.132Z,544.00
2022-12-25T12:31:44.130Z,543.00
2022-12-25T12:32:44.171Z,543.00
2022-12-25T12:33:44.027Z,548.00
2022-12-25T12:34:44.015Z,548.00
2022-12-25T12:35:43.964Z,543.00
2022-12-25T12:36:43.917Z,546.00
2022-12-25T12:37:43.880Z,544.00
2022-12-25T12:38:43.864Z,545.00
2022-12-25T12:39:43.804Z,548.00
2022-12-25T12:40:43.772Z,545.00
2022-12-25T12:41:43.742Z,545.00
2022-12-25T12:42:43.835Z,546.00
2022-12-25T12:43:43.666Z,544.00
2022-12-25T12:44:43.626Z,544.00
2022-12-25T12:45:43.667Z,544.00
2022-12-25T12:46:43.735Z,546.00
2022-12-25T12:47:43.542Z,543.00
2022-12-25T12:48:43.488Z,542.00
2022-12-25T12:49:43.468Z,546.00
2022-12-25T12:50:43.442Z,546.00
2022-12-25T12:51:43.424Z,543.00
2022-12-25T12:52:43.376Z,546.00
2022-12-25T12:53:43.327Z,542.00
2022-12-25T12:54:43.293Z,541.00
2022-12-25T12:55:43.266Z,543.00
2022-12-25T12:56:43.224Z,539.00
2022-12-25T12:57:43.170Z,541.00
2022-12-25T12:58:43.138Z,543.00
2022-12-25T12:59:43.093Z,540.00
2022-12-25T13:00:43.123Z,538.00
2022-12-25T13:01:43.157Z,539.00
2022-12-25T13:02:43.160Z,537.00
2022-12-25T13:03:42.952Z,538.00
2022-12-25T13:04:42.907Z,538.00
2022-12-25T13:05:42.865Z,539.00
2022-12-25T13:06:42.827Z,536.00
2022-12-25T13:07:42.785Z,538.00
2022-12-25T13:08:42.751Z,540.00
2022-12-25T13:09:42.713Z,534.00
2022-12-25T13:10:42.665Z,536.00
2022-12-25T13:11:42.641Z,536.00
2022-12-25T13:12:42.587Z,535.00
2022-12-25T13:13:42.553Z,535.00
2022-12-25T13:14:42.521Z,530.00
2022-12-25T13:15:42.475Z,534.00
2022-12-25T13:16:42.490Z,535.00
2022-12-25T13:17:42.399Z,532.00
2022-12-25T13:18:42.390Z,530.00
2022-12-25T13:19:42.331Z,530.00
2022-12-25T13:20:42.318Z,525.00
2022-12-25T13:21:42.255Z,523.00
2022-12-25T13:22:45.187Z,528.00
2022-12-25T13:24:42.143Z,528.00
2022-12-25T13:29:41.964Z,526.00
2022-12-25T13:49:41.291Z,506.00
2022-12-25T13:50:41.255Z,505.00
2022-12-25T13:51:41.246Z,500.00
2022-12-25T13:52:41.192Z,500.00
2022-12-25T13:53:41.165Z,494.00
2022-12-25T13:54:41.131Z,494.00
2022-12-25T13:55:41.099Z,500.00
2022-12-25T13:56:41.081Z,494.00
2022-12-25T13:57:41.058Z,500.00
2022-12-25T13:58:41.062Z,504.00
2022-12-25T13:59:41.003Z,508.00
2022-12-25T14:00:40.971Z,508.00
2022-12-25T14:01:41.079Z,507.00
2022-12-25T14:02:40.940Z,503.00
2022-12-25T14:03:40.936Z,504.00
2022-12-25T14:04:40.870Z,504.00
2022-12-25T14:05:43.308Z,504.00
2022-12-25T14:06:40.807Z,500.00
2022-12-25T14:07:40.776Z,503.00
2022-12-25T14:08:40.736Z,504.00
2022-12-25T14:09:40.717Z,500.00
2022-12-25T14:10:40.678Z,503.00
2022-12-25T14:11:40.649Z,500.00
2022-12-25T14:12:40.637Z,506.00
2022-12-25T14:13:40.603Z,505.00
2022-12-25T14:14:40.586Z,517.00
2022-12-25T14:15:40.545Z,507.00
2022-12-25T14:16:40.588Z,503.00
2022-12-25T14:17:40.486Z,513.00
2022-12-25T14:18:40.459Z,509.00
2022-12-25T14:19:40.438Z,511.00
2022-12-25T14:20:40.406Z,512.00
2022-12-25T14:21:40.387Z,513.00
2022-12-25T14:22:40.353Z,505.00
2022-12-25T14:23:40.307Z,505.00
2022-12-25T14:24:40.292Z,510.00
2022-12-25T14:25:40.290Z,511.00
2022-12-25T14:26:40.249Z,503.00
2022-12-25T14:27:40.224Z,505.00
2022-12-25T14:28:40.197Z,513.00
2022-12-25T14:29:40.160Z,505.00
2022-12-25T14:30:40.202Z,501.00
2022-12-25T14:31:40.112Z,507.00
